Flight Track Log - Related Links

Times and Time Zones

All times are in EDT time to prevent confusion due to time zone crossing. See the ASQ6151 flight status page for this flight to view local times or setup timezone preferences in your user account.

Time Position Orientation Groundspeed Altitude Reporting Facility
EDT Latitude Longitude Course Direction KTS MPH feet Rate Location/Type
Tue 10:29:28 PM 41.9500 -87.9333 270° West 168 193 3,800  Level Chicago TRACON
Tue 10:30:34 PM 41.9500 -88.0167 270° West 232 267 5,900 2,600 Climbing Chicago TRACON
Tue 10:31:28 PM 41.9500 -88.1000 270° West 237 273 9,000 2,703 Climbing Chicago TRACON
Tue 10:32:00 PM 41.9667 -88.3760 270° West  Level FlightAware Approximate
Tue 10:32:05 PM 41.9436 -88.1408 258° West 234 269 10,000  Level Chicago Center
Tue 10:33:00 PM 41.9667 -88.4950 270° West  Level FlightAware Approximate
Tue 10:33:07 PM 41.9389 -88.2389 266° West 254 292 12,800  Level Chicago Center
Tue 10:34:00 PM 41.9667 -88.6140 270° West  Level FlightAware Approximate
Tue 10:34:08 PM 41.9303 -88.3628 265° West 278 320 13,100  Level Chicago Center
Tue 10:35:09 PM 41.9228 -88.4653 264° West 281 323 13,100  Level Chicago Center
Tue 10:36:11 PM 41.8756 -88.5467 232° Southwest 280 322 13,100  Level Chicago Center
Tue 10:37:12 PM 41.8267 -88.6289 231° Southwest 282 325 13,100  Level Chicago Center
Tue 10:38:13 PM 41.7728 -88.7222 232° Southwest 318 366 13,100  Level Chicago Center
Tue 10:39:15 PM 41.7125 -88.8283 233° Southwest 357 411 13,100  Level Chicago Center
Tue 10:40:16 PM 41.6053 -88.9197 213° Southwest 384 442 13,100  Level Chicago Center
Tue 10:41:17 PM 41.5178 -88.9933 212° Southwest 378 435 13,100  Level Chicago Center
Tue 10:42:19 PM 41.4292 -89.0686 213° Southwest 380 437 13,100 -439 Level Chicago Center
Tue 10:43:20 PM 41.3403 -89.1406 211° Southwest 379 436 12,200 -1,279 Descending Chicago Center
Tue 10:44:21 PM 41.2444 -89.2192 212° Southwest 368 423 10,500 -1,024 Descending Chicago Center
Tue 10:45:23 PM 41.1658 -89.2853 212° Southwest 343 395 10,100 -195 Descending Chicago Center
Tue 10:46:24 PM 41.0925 -89.3461 212° Southwest 317 365 10,100 -49 Level Chicago Center
Tue 10:47:25 PM 41.0181 -89.4064 211° Southwest 315 362 10,000 -634 Descending Chicago Center
Tue 10:48:27 PM 40.9558 -89.4581 212° Southwest 272 313 8,800 -1,756 Descending Chicago Center
Tue 10:49:28 PM 40.8964 -89.5064 212° Southwest 254 292 6,400 -1,377 Descending Chicago Center
Tue 10:50:29 PM 40.8544 -89.5608 224° Southwest 224 258 6,000 -780 Descending Chicago Center
Tue 10:51:31 PM 40.8139 -89.5872 206° Southwest 184 212 4,800 -1,317 Descending Chicago Center
Tue 10:52:32 PM 40.7661 -89.5875 180° South 177 204 3,300 -1,475 Descending Chicago Center

Login

Don't have an account? Register now (free) for customized features, flight alerts, and more!